createdAt,value
2017-09-15T00:00:22.270Z,14.12
2017-09-15T00:00:48.395Z,14.1
2017-09-15T00:01:14.516Z,14.15
2017-09-15T00:01:40.635Z,14.18
2017-09-15T00:02:06.766Z,14.22
2017-09-15T00:02:32.880Z,14.2
2017-09-15T00:02:59.028Z,14.26
2017-09-15T00:03:25.146Z,14.14
2017-09-15T00:03:51.270Z,14.14
2017-09-15T00:04:17.392Z,14.23
2017-09-15T00:04:43.515Z,14.26
2017-09-15T00:05:09.646Z,14.14
2017-09-15T00:05:35.753Z,14.15
2017-09-15T00:06:01.875Z,14.1
2017-09-15T00:06:28.012Z,14.17
2017-09-15T00:06:54.128Z,14.11
2017-09-15T00:07:20.255Z,14.15
2017-09-15T00:07:46.383Z,14.12
2017-09-15T00:08:12.498Z,14.11
2017-09-15T00:08:38.620Z,14.18
2017-09-15T00:09:04.742Z,14.08
2017-09-15T00:09:30.867Z,14.08
2017-09-15T00:09:57.035Z,14.12
2017-09-15T00:10:23.158Z,14.15
2017-09-15T00:10:49.282Z,14.1
2017-09-15T00:11:15.399Z,14.08
2017-09-15T00:11:41.522Z,13.96
2017-09-15T00:12:07.646Z,14.03
2017-09-15T00:12:33.771Z,14.11
2017-09-15T00:12:59.899Z,14.1
2017-09-15T00:13:26.016Z,14
2017-09-15T00:13:52.137Z,14
2017-09-15T00:14:18.264Z,13.97
2017-09-15T00:14:44.408Z,14
2017-09-15T00:15:10.525Z,13.93
2017-09-15T00:15:36.647Z,14.03
2017-09-15T00:16:02.776Z,14
2017-09-15T00:16:28.896Z,13.97
2017-09-15T00:16:55.022Z,13.96
2017-09-15T00:17:21.165Z,13.99
2017-09-15T00:17:47.284Z,13.97
2017-09-15T00:18:13.408Z,14
2017-09-15T00:18:39.526Z,13.97
2017-09-15T00:19:05.648Z,13.95
2017-09-15T00:19:31.776Z,13.85
2017-09-15T00:19:57.896Z,13.95
2017-09-15T00:20:24.028Z,13.89
2017-09-15T00:20:50.147Z,13.86
2017-09-15T00:21:16.273Z,13.79
2017-09-15T00:21:42.392Z,13.86
2017-09-15T00:22:08.519Z,13.89
2017-09-15T00:22:34.641Z,13.9
2017-09-15T00:23:00.765Z,13.89
2017-09-15T00:23:26.879Z,13.89
2017-09-15T00:23:53.030Z,13.9
2017-09-15T00:24:19.120Z,13.83
2017-09-15T00:24:45.265Z,13.9
2017-09-15T00:25:11.392Z,13.83
2017-09-15T00:25:37.511Z,13.83
2017-09-15T00:26:03.634Z,13.86
2017-09-15T00:26:29.762Z,13.93
2017-09-15T00:26:55.880Z,13.9
2017-09-15T00:27:22.003Z,13.9
2017-09-15T00:27:48.131Z,13.85
2017-09-15T00:28:14.249Z,13.85
2017-09-15T00:28:40.367Z,13.86
2017-09-15T00:29:06.491Z,13.87
2017-09-15T00:29:32.608Z,13.87
2017-09-15T00:29:58.738Z,13.83
2017-09-15T00:30:24.866Z,13.81
2017-09-15T00:30:50.983Z,13.89
2017-09-15T00:31:17.111Z,13.86
2017-09-15T00:31:43.228Z,13.9
2017-09-15T00:32:09.354Z,13.83
2017-09-15T00:32:35.473Z,13.86
2017-09-15T00:33:01.595Z,13.78
2017-09-15T00:33:27.720Z,13.79
2017-09-15T00:33:53.839Z,13.86
2017-09-15T00:34:19.963Z,13.83
2017-09-15T00:34:46.083Z,13.85
2017-09-15T00:35:12.208Z,13.79
2017-09-15T00:35:38.326Z,13.86
2017-09-15T00:36:04.455Z,13.86
2017-09-15T00:36:30.579Z,13.89
2017-09-15T00:36:56.693Z,13.86
2017-09-15T00:37:22.820Z,13.86
2017-09-15T00:37:48.937Z,13.81
2017-09-15T00:38:15.060Z,13.74
2017-09-15T00:38:41.188Z,13.78
2017-09-15T00:39:07.313Z,13.75
2017-09-15T00:39:33.426Z,13.7
2017-09-15T00:39:59.547Z,13.71
2017-09-15T00:40:25.674Z,13.77
2017-09-15T00:40:51.791Z,13.75
2017-09-15T00:41:17.919Z,13.71
2017-09-15T00:41:44.038Z,13.7
2017-09-15T00:42:10.164Z,13.62
2017-09-15T00:42:36.281Z,13.71
2017-09-15T00:43:02.404Z,13.72
2017-09-15T00:43:28.526Z,13.74
2017-09-15T00:43:54.643Z,13.74
2017-09-15T00:44:20.770Z,13.63
2017-09-15T00:44:46.894Z,13.59
2017-09-15T00:45:13.015Z,13.7
2017-09-15T00:45:39.141Z,13.67
2017-09-15T00:46:05.271Z,13.72
2017-09-15T00:46:32.827Z,13.7
2017-09-15T00:46:58.960Z,13.74
2017-09-15T00:47:25.078Z,13.71
2017-09-15T00:47:51.205Z,13.72
2017-09-15T00:48:17.325Z,13.72
2017-09-15T00:48:43.453Z,13.77
2017-09-15T00:49:09.570Z,13.72
2017-09-15T00:49:35.691Z,13.67
2017-09-15T00:50:01.812Z,13.6
2017-09-15T00:50:27.930Z,13.62
2017-09-15T00:50:54.063Z,13.6
2017-09-15T00:51:20.188Z,13.67
2017-09-15T00:51:46.304Z,13.6
2017-09-15T00:52:12.428Z,13.67
2017-09-15T00:52:38.550Z,13.67
2017-09-15T00:53:04.670Z,13.67
2017-09-15T00:53:30.793Z,13.59
2017-09-15T00:53:56.920Z,13.65
2017-09-15T00:54:23.037Z,13.62
2017-09-15T00:54:49.165Z,13.6
2017-09-15T00:55:15.281Z,13.65
2017-09-15T00:55:41.404Z,13.56
2017-09-15T00:56:07.532Z,13.6
2017-09-15T00:56:33.654Z,13.68
2017-09-15T00:56:59.779Z,13.6
2017-09-15T00:57:25.894Z,13.68
2017-09-15T00:57:52.020Z,13.65
2017-09-15T00:58:18.139Z,13.63
2017-09-15T00:58:44.267Z,13.63
2017-09-15T00:59:10.382Z,13.62
2017-09-15T00:59:36.506Z,13.67
2017-09-15T01:00:02.634Z,13.75
2017-09-15T01:00:28.755Z,13.67
2017-09-15T01:00:54.872Z,13.7
2017-09-15T01:01:20.997Z,13.59
2017-09-15T01:01:47.119Z,13.59
2017-09-15T01:02:13.242Z,13.71
2017-09-15T01:02:39.361Z,13.65
2017-09-15T01:03:05.487Z,13.7
2017-09-15T01:03:31.612Z,13.71
2017-09-15T01:03:57.731Z,13.75
2017-09-15T01:04:23.848Z,13.67
2017-09-15T01:04:49.980Z,13.74
2017-09-15T01:05:16.107Z,13.72
2017-09-15T01:05:42.225Z,13.71
2017-09-15T01:06:08.356Z,13.68
2017-09-15T01:06:34.476Z,13.56
2017-09-15T01:07:00.593Z,13.71
2017-09-15T01:07:26.714Z,13.6
2017-09-15T01:07:52.838Z,13.63
2017-09-15T01:08:18.961Z,13.67
2017-09-15T01:08:45.082Z,13.71
2017-09-15T01:09:11.204Z,13.6
2017-09-15T01:09:37.319Z,13.59
2017-09-15T01:10:03.446Z,13.6
2017-09-15T01:10:29.561Z,13.63
2017-09-15T01:10:55.681Z,13.6
2017-09-15T01:11:21.807Z,13.57
2017-09-15T01:11:47.932Z,13.5
2017-09-15T01:12:14.052Z,13.49
2017-09-15T01:12:40.180Z,13.52
2017-09-15T01:13:06.297Z,13.54
2017-09-15T01:13:32.425Z,13.49
2017-09-15T01:13:58.542Z,13.59
2017-09-15T01:14:24.665Z,13.49
2017-09-15T01:14:50.814Z,13.5
2017-09-15T01:15:16.934Z,13.5
2017-09-15T01:15:43.051Z,13.47
2017-09-15T01:16:09.172Z,13.57
2017-09-15T01:16:35.315Z,13.56
2017-09-15T01:17:01.432Z,13.56
2017-09-15T01:17:27.579Z,13.6
2017-09-15T01:17:53.708Z,13.54
2017-09-15T01:18:19.824Z,13.57
2017-09-15T01:18:45.951Z,13.54
2017-09-15T01:19:12.071Z,13.49
2017-09-15T01:19:38.197Z,13.6
2017-09-15T01:20:04.311Z,13.62
2017-09-15T01:20:30.440Z,13.6
2017-09-15T01:20:56.563Z,13.59
2017-09-15T01:21:22.677Z,13.63
2017-09-15T01:21:48.796Z,13.6
2017-09-15T01:22:14.919Z,13.7
2017-09-15T01:22:41.044Z,13.6
2017-09-15T01:23:07.167Z,13.65
2017-09-15T01:23:33.289Z,13.71
2017-09-15T01:23:59.415Z,13.62
2017-09-15T01:24:25.530Z,13.6
2017-09-15T01:24:51.653Z,13.53
2017-09-15T01:25:17.774Z,13.53
2017-09-15T01:25:43.906Z,13.47
2017-09-15T01:26:10.026Z,13.56
2017-09-15T01:26:36.144Z,13.6
2017-09-15T01:27:02.272Z,13.49
2017-09-15T01:27:28.389Z,13.5
2017-09-15T01:27:54.517Z,13.56
2017-09-15T01:28:20.636Z,13.65
2017-09-15T01:28:46.755Z,13.56
2017-09-15T01:29:12.881Z,13.47
2017-09-15T01:29:39.006Z,13.49
2017-09-15T01:30:05.123Z,13.52
2017-09-15T01:30:31.243Z,13.59
2017-09-15T01:30:57.372Z,13.56
2017-09-15T01:31:23.490Z,13.65
2017-09-15T01:31:49.618Z,13.6
2017-09-15T01:32:15.742Z,13.6
2017-09-15T01:32:41.859Z,13.54
2017-09-15T01:33:07.980Z,13.62
2017-09-15T01:33:34.109Z,13.57
2017-09-15T01:34:00.228Z,13.59
2017-09-15T01:34:26.353Z,13.62
2017-09-15T01:34:52.473Z,13.62
2017-09-15T01:35:18.597Z,13.57
2017-09-15T01:35:44.718Z,13.59
2017-09-15T01:36:10.867Z,13.6
2017-09-15T01:36:36.967Z,13.5
2017-09-15T01:37:03.102Z,13.49
2017-09-15T01:37:29.217Z,13.52
2017-09-15T01:37:55.335Z,13.53
2017-09-15T01:38:21.458Z,13.5
2017-09-15T01:38:47.583Z,13.62
2017-09-15T01:39:13.698Z,13.62
2017-09-15T01:39:39.821Z,13.65
2017-09-15T01:40:05.948Z,13.71
2017-09-15T01:40:32.066Z,13.68
2017-09-15T01:40:58.183Z,13.65
2017-09-15T01:41:24.308Z,13.67
2017-09-15T01:41:50.424Z,13.71
2017-09-15T01:42:16.547Z,13.6
2017-09-15T01:42:42.681Z,13.6
2017-09-15T01:43:08.803Z,13.7
2017-09-15T01:43:34.925Z,13.6
2017-09-15T01:44:01.053Z,13.72
2017-09-15T01:44:27.171Z,13.74
2017-09-15T01:44:53.288Z,13.74
2017-09-15T01:45:19.412Z,13.81
2017-09-15T01:45:45.533Z,13.71
2017-09-15T01:46:11.656Z,13.71
2017-09-15T01:46:37.777Z,13.71
2017-09-15T01:47:03.901Z,13.6
2017-09-15T01:47:30.017Z,13.72
2017-09-15T01:47:56.141Z,13.59
2017-09-15T01:48:22.273Z,13.63
2017-09-15T01:48:48.390Z,13.71
2017-09-15T01:49:14.515Z,13.65
2017-09-15T01:49:40.634Z,13.59
2017-09-15T01:50:06.758Z,13.57
2017-09-15T01:50:32.879Z,13.6
2017-09-15T01:50:59.005Z,13.53
2017-09-15T01:51:25.128Z,13.57
2017-09-15T01:51:51.245Z,13.56
2017-09-15T01:52:17.372Z,13.62
2017-09-15T01:52:43.492Z,13.5
2017-09-15T01:53:09.609Z,13.52
2017-09-15T01:53:35.738Z,13.53
2017-09-15T01:54:01.854Z,13.49
2017-09-15T01:54:27.981Z,13.57
2017-09-15T01:54:54.098Z,13.52
2017-09-15T01:55:20.225Z,13.46
2017-09-15T01:55:46.350Z,13.52
2017-09-15T01:56:12.472Z,13.52
2017-09-15T01:56:38.593Z,13.49
2017-09-15T01:57:04.712Z,13.59
2017-09-15T01:57:30.837Z,13.59
2017-09-15T01:57:56.955Z,13.54
2017-09-15T01:58:23.084Z,13.56
2017-09-15T01:58:49.202Z,13.57
2017-09-15T01:59:15.321Z,13.57
2017-09-15T01:59:41.448Z,13.65
2017-09-15T02:00:07.568Z,13.6
2017-09-15T02:00:33.689Z,13.6
2017-09-15T02:00:59.811Z,13.6
2017-09-15T02:01:25.932Z,13.59
2017-09-15T02:01:52.068Z,13.65
2017-09-15T02:02:18.194Z,13.65
2017-09-15T02:02:44.316Z,13.68
2017-09-15T02:03:10.442Z,13.54
2017-09-15T02:03:36.567Z,13.59
2017-09-15T02:04:02.681Z,13.56
2017-09-15T02:04:28.811Z,13.63
2017-09-15T02:04:54.927Z,13.6
2017-09-15T02:05:21.053Z,13.53
2017-09-15T02:05:47.169Z,13.62
2017-09-15T02:06:13.290Z,13.56
2017-09-15T02:06:39.417Z,13.57
2017-09-15T02:07:05.531Z,13.6
2017-09-15T02:07:31.654Z,13.57
2017-09-15T02:07:57.779Z,13.59
2017-09-15T02:08:23.904Z,13.65
2017-09-15T02:08:50.027Z,13.54
2017-09-15T02:09:16.153Z,13.57
2017-09-15T02:09:42.272Z,13.52
2017-09-15T02:10:08.395Z,13.47
2017-09-15T02:10:34.521Z,13.54
2017-09-15T02:11:00.643Z,13.54
2017-09-15T02:11:26.766Z,13.52
2017-09-15T02:11:52.884Z,13.52
2017-09-15T02:12:19.008Z,13.5
2017-09-15T02:12:45.125Z,13.54
2017-09-15T02:13:11.247Z,13.49
2017-09-15T02:13:37.375Z,13.47
2017-09-15T02:14:03.494Z,13.54
2017-09-15T02:14:29.621Z,13.5
2017-09-15T02:14:55.745Z,13.53
2017-09-15T02:15:21.860Z,13.49
2017-09-15T02:15:47.987Z,13.52
2017-09-15T02:16:14.107Z,13.52
2017-09-15T02:16:40.229Z,13.47
2017-09-15T02:17:06.355Z,13.56
2017-09-15T02:17:32.474Z,13.47
2017-09-15T02:17:58.598Z,13.47
2017-09-15T02:18:24.719Z,13.5
2017-09-15T02:18:50.848Z,13.49
2017-09-15T02:19:16.966Z,13.44
2017-09-15T02:19:43.093Z,13.44
2017-09-15T02:20:09.209Z,13.47
2017-09-15T02:20:35.333Z,13.44
2017-09-15T02:21:01.454Z,13.44
2017-09-15T02:21:27.577Z,13.47
2017-09-15T02:21:53.698Z,13.54
2017-09-15T02:22:19.840Z,13.49
2017-09-15T02:22:45.942Z,13.41
2017-09-15T02:23:12.069Z,13.42
2017-09-15T02:23:38.193Z,13.41
2017-09-15T02:24:04.308Z,13.42
2017-09-15T02:24:30.434Z,13.46
2017-09-15T02:24:56.557Z,13.56
2017-09-15T02:25:22.674Z,13.42
2017-09-15T02:25:48.802Z,13.49
2017-09-15T02:26:14.920Z,13.44
2017-09-15T02:26:41.050Z,13.42
2017-09-15T02:27:07.164Z,13.52
2017-09-15T02:27:33.281Z,13.39
2017-09-15T02:27:59.415Z,13.46
2017-09-15T02:28:25.533Z,13.42
2017-09-15T02:28:51.662Z,13.39
2017-09-15T02:29:17.787Z,13.42
2017-09-15T02:29:43.921Z,13.42
2017-09-15T02:30:10.054Z,13.44
2017-09-15T02:30:36.172Z,13.49
2017-09-15T02:31:02.298Z,13.41
2017-09-15T02:31:28.422Z,13.37
2017-09-15T02:31:54.535Z,13.44
2017-09-15T02:32:20.673Z,13.35
2017-09-15T02:32:46.798Z,13.25
2017-09-15T02:33:12.923Z,13.3
2017-09-15T02:33:39.046Z,13.35
2017-09-15T02:34:05.170Z,13.23
2017-09-15T02:34:31.295Z,13.23
2017-09-15T02:34:57.413Z,13.3
2017-09-15T02:35:23.538Z,13.25
2017-09-15T02:35:49.659Z,13.38
2017-09-15T02:36:15.785Z,13.33
2017-09-15T02:36:41.903Z,13.41
2017-09-15T02:37:08.030Z,13.27
2017-09-15T02:37:34.153Z,13.38
2017-09-15T02:38:00.274Z,13.33
2017-09-15T02:38:26.398Z,13.46
2017-09-15T02:38:52.521Z,13.44
2017-09-15T02:39:18.645Z,13.53
2017-09-15T02:39:44.761Z,13.5
2017-09-15T02:40:10.883Z,13.53
2017-09-15T02:40:37.010Z,13.44
2017-09-15T02:41:03.127Z,13.39
2017-09-15T02:41:29.254Z,13.41
2017-09-15T02:41:55.378Z,13.38
2017-09-15T02:42:21.493Z,13.37
2017-09-15T02:42:47.619Z,13.53
2017-09-15T02:43:13.745Z,13.42
2017-09-15T02:43:39.858Z,13.46
2017-09-15T02:44:05.985Z,13.38
2017-09-15T02:44:32.100Z,13.41
2017-09-15T02:44:58.225Z,13.46
2017-09-15T02:45:24.353Z,13.42
2017-09-15T02:45:50.475Z,13.38
2017-09-15T02:46:16.597Z,13.33
2017-09-15T02:46:42.725Z,13.44
2017-09-15T02:47:08.845Z,13.38
2017-09-15T02:47:34.960Z,13.42
2017-09-15T02:48:01.089Z,13.44
2017-09-15T02:48:27.209Z,13.46
2017-09-15T02:48:53.333Z,13.42
2017-09-15T02:49:19.459Z,13.46
2017-09-15T02:49:45.618Z,13.37
2017-09-15T02:50:11.740Z,13.35
2017-09-15T02:50:37.864Z,13.39
2017-09-15T02:51:03.983Z,13.42
2017-09-15T02:51:30.104Z,13.33
2017-09-15T02:51:56.229Z,13.39
2017-09-15T02:52:22.369Z,13.47
2017-09-15T02:52:48.522Z,13.42
2017-09-15T02:53:14.642Z,13.47
2017-09-15T02:53:40.769Z,13.38
2017-09-15T02:54:06.887Z,13.44
2017-09-15T02:54:33.006Z,13.42
2017-09-15T02:54:59.131Z,13.42
2017-09-15T02:55:25.252Z,13.42
2017-09-15T02:55:51.376Z,13.39
2017-09-15T02:56:17.499Z,13.37
2017-09-15T02:56:43.621Z,13.41
2017-09-15T02:57:09.743Z,13.37
2017-09-15T02:57:35.869Z,13.37
2017-09-15T02:58:01.985Z,13.39
2017-09-15T02:58:28.113Z,13.38
2017-09-15T02:58:54.233Z,13.41
2017-09-15T02:59:20.357Z,13.31
2017-09-15T02:59:46.471Z,13.39
2017-09-15T03:00:12.599Z,13.37
2017-09-15T03:00:38.718Z,13.38
2017-09-15T03:01:04.837Z,13.25
2017-09-15T03:01:30.964Z,13.3
2017-09-15T03:01:57.079Z,13.28
2017-09-15T03:02:23.208Z,13.33
2017-09-15T03:02:49.331Z,13.39
2017-09-15T03:03:15.448Z,13.44
2017-09-15T03:03:41.572Z,13.39
2017-09-15T03:04:07.699Z,13.33
2017-09-15T03:04:33.820Z,13.35
2017-09-15T03:04:59.937Z,13.38
2017-09-15T03:05:26.064Z,13.44
2017-09-15T03:05:52.183Z,13.41
2017-09-15T03:06:18.303Z,13.41
2017-09-15T03:06:44.425Z,13.41
2017-09-15T03:07:10.546Z,13.3
2017-09-15T03:07:36.671Z,13.38
2017-09-15T03:08:02.795Z,13.35
2017-09-15T03:08:28.925Z,13.35
2017-09-15T03:08:55.053Z,13.27
2017-09-15T03:09:21.175Z,13.39
2017-09-15T03:09:47.295Z,13.41
2017-09-15T03:10:13.418Z,13.35
2017-09-15T03:10:39.556Z,13.35
2017-09-15T03:11:05.677Z,13.38
2017-09-15T03:11:31.798Z,13.37
2017-09-15T03:11:57.927Z,13.27
2017-09-15T03:12:24.053Z,13.3
2017-09-15T03:12:50.178Z,13.27
2017-09-15T03:13:16.301Z,13.25
2017-09-15T03:13:42.418Z,13.31
2017-09-15T03:14:08.548Z,13.2
2017-09-15T03:14:34.669Z,13.2
2017-09-15T03:15:00.795Z,13.16
2017-09-15T03:15:26.910Z,13.08
2017-09-15T03:15:53.034Z,13.16
2017-09-15T03:16:19.158Z,13.13
2017-09-15T03:16:45.289Z,13.11
2017-09-15T03:17:11.408Z,13.08
2017-09-15T03:17:37.525Z,13.08
2017-09-15T03:18:03.642Z,13.09
2017-09-15T03:18:29.770Z,13.08
2017-09-15T03:18:55.886Z,13.12
2017-09-15T03:19:22.018Z,13.18
2017-09-15T03:19:48.177Z,13.13
2017-09-15T03:20:14.298Z,13.16
2017-09-15T03:20:40.425Z,13.3
2017-09-15T03:21:06.547Z,13.23
2017-09-15T03:21:32.673Z,13.2
2017-09-15T03:21:58.799Z,13.25
2017-09-15T03:22:24.916Z,13.28
2017-09-15T03:22:51.044Z,13.19
2017-09-15T03:23:17.165Z,13.25
2017-09-15T03:23:43.283Z,13.27
2017-09-15T03:24:09.406Z,13.25
2017-09-15T03:24:35.527Z,13.3
2017-09-15T03:25:01.653Z,13.25
2017-09-15T03:25:27.769Z,13.31
2017-09-15T03:25:53.898Z,13.39
2017-09-15T03:26:20.023Z,13.25
2017-09-15T03:26:46.142Z,13.35
2017-09-15T03:27:12.259Z,13.31
2017-09-15T03:27:38.387Z,13.38
2017-09-15T03:28:04.512Z,13.37
2017-09-15T03:28:30.634Z,13.46
2017-09-15T03:28:56.758Z,13.33
2017-09-15T03:29:22.871Z,13.35
2017-09-15T03:29:49.001Z,13.31
2017-09-15T03:30:15.142Z,13.38
2017-09-15T03:30:41.268Z,13.47
2017-09-15T03:31:07.384Z,13.47
2017-09-15T03:31:33.502Z,13.42
2017-09-15T03:31:59.637Z,13.41
2017-09-15T03:32:25.755Z,13.35
2017-09-15T03:32:51.877Z,13.49
2017-09-15T03:33:17.996Z,13.44
2017-09-15T03:33:44.126Z,13.33
2017-09-15T03:34:10.245Z,13.35
2017-09-15T03:34:36.387Z,13.39
2017-09-15T03:35:02.504Z,13.37
2017-09-15T03:35:28.627Z,13.39
2017-09-15T03:35:54.760Z,13.41
2017-09-15T03:36:20.899Z,13.44
2017-09-15T03:36:47.023Z,13.41
2017-09-15T03:37:13.152Z,13.42
2017-09-15T03:37:39.289Z,13.38
2017-09-15T03:38:05.427Z,13.33
2017-09-15T03:38:31.549Z,13.37
2017-09-15T03:38:57.677Z,13.42
2017-09-15T03:39:23.797Z,13.38
2017-09-15T03:39:49.920Z,13.46
2017-09-15T03:40:16.048Z,13.3
2017-09-15T03:40:42.168Z,13.39
2017-09-15T03:41:08.285Z,13.38
2017-09-15T03:41:34.414Z,13.44
2017-09-15T03:42:00.539Z,13.38
2017-09-15T03:42:26.659Z,13.33
2017-09-15T03:42:52.784Z,13.44
2017-09-15T03:43:18.921Z,13.37
2017-09-15T03:43:45.048Z,13.37
2017-09-15T03:44:11.169Z,13.35
2017-09-15T03:44:37.293Z,13.39
2017-09-15T03:45:03.415Z,13.38
2017-09-15T03:45:29.564Z,13.35
2017-09-15T03:45:55.680Z,13.25
2017-09-15T03:46:21.805Z,13.27
2017-09-15T03:46:47.921Z,13.25
2017-09-15T03:47:14.042Z,13.22
2017-09-15T03:47:40.168Z,13.19
2017-09-15T03:48:06.282Z,13.25
2017-09-15T03:48:32.406Z,13.27
2017-09-15T03:48:58.534Z,13.23
2017-09-15T03:49:24.653Z,13.28
2017-09-15T03:49:50.783Z,13.22
2017-09-15T03:50:16.902Z,13.25
2017-09-15T03:50:43.020Z,13.33
2017-09-15T03:51:09.143Z,13.22
2017-09-15T03:51:35.263Z,13.3
2017-09-15T03:52:01.385Z,13.23
2017-09-15T03:52:27.504Z,13.31
2017-09-15T03:52:53.631Z,13.37
2017-09-15T03:53:19.746Z,13.44
2017-09-15T03:53:45.875Z,13.3
2017-09-15T03:54:12.001Z,13.28
2017-09-15T03:54:38.115Z,13.31
2017-09-15T03:55:04.269Z,13.38
2017-09-15T03:55:30.385Z,13.28
2017-09-15T03:55:56.515Z,13.2
2017-09-15T03:56:22.645Z,13.25
2017-09-15T03:56:48.764Z,13.25
2017-09-15T03:57:14.909Z,13.19
2017-09-15T03:57:41.026Z,13.3
2017-09-15T03:58:07.155Z,13.25
2017-09-15T03:58:33.279Z,13.18
2017-09-15T03:58:59.403Z,13.22
2017-09-15T03:59:25.526Z,13.3
2017-09-15T03:59:51.643Z,13.3
2017-09-15T04:00:17.769Z,13.25
2017-09-15T04:00:43.901Z,13.28
2017-09-15T04:01:10.024Z,13.31
2017-09-15T04:01:36.137Z,13.42
2017-09-15T04:02:02.255Z,13.39
2017-09-15T04:02:28.382Z,13.38
2017-09-15T04:02:54.531Z,13.38
2017-09-15T04:03:20.640Z,13.33
2017-09-15T04:03:46.769Z,13.31
2017-09-15T04:04:12.885Z,13.35
2017-09-15T04:04:39.003Z,13.38
2017-09-15T04:05:05.130Z,13.38
2017-09-15T04:05:31.250Z,13.42
2017-09-15T04:05:57.374Z,13.38
2017-09-15T04:06:23.496Z,13.38
2017-09-15T04:06:49.623Z,13.31
2017-09-15T04:07:15.738Z,13.31
2017-09-15T04:07:41.865Z,13.22
2017-09-15T04:08:07.989Z,13.33
2017-09-15T04:08:34.132Z,13.39
2017-09-15T04:09:00.257Z,13.31
2017-09-15T04:09:26.374Z,13.28
2017-09-15T04:09:52.502Z,13.35
2017-09-15T04:10:18.623Z,13.35
2017-09-15T04:10:44.740Z,13.22
2017-09-15T04:11:10.866Z,13.23
2017-09-15T04:11:36.990Z,13.3
2017-09-15T04:12:03.111Z,13.18
2017-09-15T04:12:29.229Z,13.19
2017-09-15T04:12:55.356Z,13.16
2017-09-15T04:13:21.483Z,13.11
2017-09-15T04:13:47.598Z,13.11
2017-09-15T04:14:13.725Z,13.12
2017-09-15T04:14:39.842Z,13.18
2017-09-15T04:15:05.971Z,13.12
2017-09-15T04:15:32.093Z,13.18
2017-09-15T04:15:58.218Z,13.2
2017-09-15T04:16:24.334Z,13.2
2017-09-15T04:16:50.475Z,13.19
2017-09-15T04:17:16.579Z,13.13
2017-09-15T04:17:42.705Z,13.11
2017-09-15T04:18:08.824Z,13.11
2017-09-15T04:18:34.948Z,13.05
2017-09-15T04:19:01.068Z,13.09
2017-09-15T04:19:27.186Z,13.04
2017-09-15T04:19:53.331Z,12.97
2017-09-15T04:20:19.430Z,13.03
2017-09-15T04:20:45.557Z,12.97
2017-09-15T04:21:11.681Z,13.05
2017-09-15T04:21:37.797Z,13.08
2017-09-15T04:22:03.924Z,12.98
2017-09-15T04:22:30.046Z,12.93
2017-09-15T04:22:56.169Z,12.91
2017-09-15T04:23:22.286Z,12.97
2017-09-15T04:23:48.404Z,12.82
2017-09-15T04:24:14.532Z,12.95
2017-09-15T04:24:40.657Z,12.87
2017-09-15T04:25:06.775Z,12.93
2017-09-15T04:25:32.896Z,12.95
2017-09-15T04:25:59.025Z,12.95
2017-09-15T04:26:25.150Z,12.79
2017-09-15T04:26:51.272Z,12.83
2017-09-15T04:27:17.397Z,12.82
2017-09-15T04:27:43.519Z,12.79
2017-09-15T04:28:09.634Z,12.83
2017-09-15T04:28:35.759Z,12.68
2017-09-15T04:29:01.880Z,12.83
2017-09-15T04:29:28.003Z,12.75
2017-09-15T04:29:54.120Z,12.83
2017-09-15T04:30:20.245Z,12.85
2017-09-15T04:30:46.386Z,12.78
2017-09-15T04:31:12.504Z,12.79
2017-09-15T04:31:38.631Z,12.83
2017-09-15T04:32:04.746Z,12.82
2017-09-15T04:32:30.875Z,12.86
2017-09-15T04:32:56.995Z,12.78
2017-09-15T04:33:23.133Z,12.78
2017-09-15T04:33:49.256Z,12.86
2017-09-15T04:34:15.374Z,12.78
2017-09-15T04:34:41.492Z,12.82
2017-09-15T04:35:07.611Z,12.83
2017-09-15T04:35:33.739Z,12.83
2017-09-15T04:35:59.866Z,12.8
2017-09-15T04:36:25.991Z,12.7
2017-09-15T04:36:52.114Z,12.75
2017-09-15T04:37:18.235Z,12.67
2017-09-15T04:37:44.350Z,12.76
2017-09-15T04:38:10.479Z,12.72
2017-09-15T04:38:36.625Z,12.76
2017-09-15T04:39:02.742Z,12.79
2017-09-15T04:39:28.869Z,12.75
2017-09-15T04:39:54.990Z,12.73
2017-09-15T04:40:21.113Z,12.68
2017-09-15T04:40:47.232Z,12.82
2017-09-15T04:41:13.359Z,12.78
2017-09-15T04:41:39.474Z,12.82
2017-09-15T04:42:05.593Z,12.83
2017-09-15T04:42:31.716Z,12.82
2017-09-15T04:42:57.838Z,12.78
2017-09-15T04:43:23.967Z,12.65
2017-09-15T04:43:50.085Z,12.8
2017-09-15T04:44:16.212Z,12.86
2017-09-15T04:44:42.335Z,12.7
2017-09-15T04:45:08.456Z,12.7
2017-09-15T04:45:34.604Z,12.73
2017-09-15T04:46:00.701Z,12.73
2017-09-15T04:46:26.827Z,12.65
2017-09-15T04:46:52.946Z,12.83
2017-09-15T04:47:19.070Z,12.82
2017-09-15T04:47:45.192Z,12.78
2017-09-15T04:48:11.309Z,12.82
2017-09-15T04:48:37.429Z,12.83
2017-09-15T04:49:03.546Z,12.72
2017-09-15T04:49:29.673Z,12.73
2017-09-15T04:49:55.798Z,12.75
2017-09-15T04:50:21.920Z,12.7
2017-09-15T04:50:48.048Z,12.78
2017-09-15T04:51:14.163Z,12.8
2017-09-15T04:51:40.291Z,12.79
2017-09-15T04:52:06.409Z,12.72
2017-09-15T04:52:32.537Z,12.72
2017-09-15T04:52:58.674Z,12.72
2017-09-15T04:53:24.795Z,12.8
2017-09-15T04:53:50.927Z,12.87
2017-09-15T04:54:17.066Z,12.68
2017-09-15T04:54:43.190Z,12.64
2017-09-15T04:55:09.306Z,12.72
2017-09-15T04:55:35.428Z,12.62
2017-09-15T04:56:01.553Z,12.72
2017-09-15T04:56:27.670Z,12.64
2017-09-15T04:56:53.802Z,12.7
2017-09-15T04:57:19.920Z,12.78
2017-09-15T04:57:46.041Z,12.7
2017-09-15T04:58:12.162Z,12.87
2017-09-15T04:58:38.292Z,12.82
2017-09-15T04:59:04.411Z,12.82
2017-09-15T04:59:30.560Z,12.8
2017-09-15T04:59:56.702Z,12.79
2017-09-15T05:00:22.829Z,12.83
2017-09-15T05:00:48.950Z,12.83
2017-09-15T05:01:15.075Z,12.91
2017-09-15T05:01:41.196Z,12.79
2017-09-15T05:02:07.313Z,12.8
2017-09-15T05:02:33.440Z,12.78
2017-09-15T05:02:59.564Z,12.9
2017-09-15T05:03:25.685Z,12.87
2017-09-15T05:03:51.803Z,12.91
2017-09-15T05:04:17.931Z,12.82
2017-09-15T05:04:44.053Z,12.8
2017-09-15T05:05:10.170Z,12.8
2017-09-15T05:05:36.296Z,12.83
2017-09-15T05:06:02.416Z,12.65
2017-09-15T05:06:28.567Z,12.75
2017-09-15T05:06:54.684Z,12.67
2017-09-15T05:07:20.805Z,12.79
2017-09-15T05:07:46.934Z,12.65
2017-09-15T05:08:13.059Z,12.68
2017-09-15T05:08:39.198Z,12.85
2017-09-15T05:09:05.320Z,12.83
2017-09-15T05:09:31.448Z,12.82
2017-09-15T05:09:57.570Z,12.7
2017-09-15T05:10:23.697Z,12.85
2017-09-15T05:10:49.821Z,12.8
2017-09-15T05:11:15.944Z,12.8
2017-09-15T05:11:42.063Z,12.76
2017-09-15T05:12:08.186Z,12.8
2017-09-15T05:12:34.316Z,12.93
2017-09-15T05:13:00.430Z,12.79
2017-09-15T05:13:26.548Z,12.83
2017-09-15T05:13:52.675Z,12.83
2017-09-15T05:14:18.790Z,12.8
2017-09-15T05:14:44.912Z,12.65
2017-09-15T05:15:11.029Z,12.73
2017-09-15T05:15:37.159Z,12.7
2017-09-15T05:16:03.281Z,12.72
2017-09-15T05:16:29.399Z,12.68
2017-09-15T05:16:55.518Z,12.68
2017-09-15T05:17:21.644Z,12.68
2017-09-15T05:17:47.768Z,12.73
2017-09-15T05:18:13.882Z,12.72
2017-09-15T05:18:40.002Z,12.75
2017-09-15T05:19:06.127Z,12.8
2017-09-15T05:19:32.249Z,12.79
2017-09-15T05:19:58.375Z,12.87
2017-09-15T05:20:24.493Z,12.94
2017-09-15T05:20:50.621Z,12.93
2017-09-15T05:21:16.742Z,12.97
2017-09-15T05:21:42.868Z,12.86
2017-09-15T05:22:08.996Z,12.91
2017-09-15T05:22:35.129Z,12.86
2017-09-15T05:23:01.252Z,12.98
2017-09-15T05:23:27.377Z,12.86
2017-09-15T05:23:53.500Z,12.83
2017-09-15T05:24:19.617Z,12.97
2017-09-15T05:24:45.745Z,12.82
2017-09-15T05:25:11.862Z,12.85
2017-09-15T05:25:37.983Z,12.7
2017-09-15T05:26:04.104Z,12.75
2017-09-15T05:26:30.226Z,12.82
2017-09-15T05:26:56.359Z,12.82
2017-09-15T05:27:22.485Z,12.79
2017-09-15T05:27:48.602Z,12.86
2017-09-15T05:28:14.731Z,12.83
2017-09-15T05:28:40.853Z,12.82
2017-09-15T05:29:06.969Z,12.83
2017-09-15T05:29:33.090Z,12.78
2017-09-15T05:29:59.218Z,12.83
2017-09-15T05:30:25.336Z,12.82
2017-09-15T05:30:51.465Z,12.82
2017-09-15T05:31:17.583Z,12.8
2017-09-15T05:31:43.703Z,12.82
2017-09-15T05:32:09.822Z,12.82
2017-09-15T05:32:35.962Z,12.86
2017-09-15T05:33:02.086Z,12.7
2017-09-15T05:33:28.209Z,12.73
2017-09-15T05:33:54.335Z,12.7
2017-09-15T05:34:20.463Z,12.68
2017-09-15T05:34:46.601Z,12.75
2017-09-15T05:35:12.719Z,12.73
2017-09-15T05:35:38.843Z,12.76
2017-09-15T05:36:04.971Z,12.82
2017-09-15T05:36:31.090Z,12.85
2017-09-15T05:36:57.215Z,12.8
2017-09-15T05:37:23.330Z,12.86
2017-09-15T05:37:49.455Z,12.78
2017-09-15T05:38:15.580Z,12.82